createdAt,value
2018-08-19T00:00:53.813Z,7.57
2018-08-19T00:03:22.823Z,8.00
2018-08-19T00:05:51.478Z,8.07
2018-08-19T00:08:20.075Z,8.30
2018-08-19T00:11:00.636Z,7.63
2018-08-19T00:13:29.248Z,7.70
2018-08-19T00:15:58.009Z,7.17
2018-08-19T00:18:26.587Z,6.93
2018-08-19T00:20:55.282Z,8.03
2018-08-19T00:23:23.955Z,7.80
2018-08-19T00:25:52.686Z,7.90
2018-08-19T00:28:21.747Z,8.03
2018-08-19T00:30:50.380Z,7.73
2018-08-19T00:33:19.125Z,7.07
2018-08-19T00:35:47.758Z,7.03
2018-08-19T00:38:16.822Z,7.83
2018-08-19T00:40:45.682Z,7.57
2018-08-19T00:43:14.258Z,7.90
2018-08-19T00:45:42.939Z,7.83
2018-08-19T00:48:11.806Z,7.40
2018-08-19T00:50:41.008Z,7.87
2018-08-19T00:53:10.718Z,7.07
2018-08-19T00:55:44.623Z,7.80
2018-08-19T00:58:14.891Z,7.30
2018-08-19T01:00:43.555Z,7.47
2018-08-19T01:03:12.475Z,7.03
2018-08-19T01:05:41.077Z,7.23
2018-08-19T01:08:11.393Z,7.17
2018-08-19T01:10:40.273Z,7.50
2018-08-19T01:13:09.342Z,7.97
2018-08-19T01:15:38.092Z,7.27
2018-08-19T01:18:06.719Z,7.67
2018-08-19T01:20:35.390Z,7.60
2018-08-19T01:23:04.049Z,7.37
2018-08-19T01:25:32.677Z,7.37
2018-08-19T01:28:01.363Z,7.17
2018-08-19T01:30:29.983Z,7.13
2018-08-19T01:32:58.626Z,7.77
2018-08-19T01:35:32.523Z,7.60
2018-08-19T01:38:01.510Z,8.10
2018-08-19T01:40:36.462Z,7.97
2018-08-19T01:43:06.491Z,7.07
2018-08-19T01:45:35.558Z,7.13
2018-08-19T01:48:04.119Z,7.43
2018-08-19T01:50:32.713Z,7.23
2018-08-19T01:53:01.328Z,7.03
2018-08-19T01:55:31.252Z,7.30
2018-08-19T01:58:00.000Z,6.80
2018-08-19T02:00:28.631Z,7.97
2018-08-19T02:03:00.731Z,7.57
2018-08-19T02:05:29.362Z,7.17
2018-08-19T02:07:59.898Z,7.80
2018-08-19T02:10:29.595Z,7.27
2018-08-19T02:12:58.782Z,7.13
2018-08-19T02:15:28.582Z,6.90
2018-08-19T02:18:05.328Z,6.77
2018-08-19T02:20:37.315Z,7.30
2018-08-19T02:23:07.570Z,6.97
2018-08-19T02:25:46.372Z,7.83
2018-08-19T02:28:19.648Z,7.57
2018-08-19T02:30:53.608Z,6.90
2018-08-19T02:33:23.498Z,7.13
2018-08-19T02:35:57.225Z,7.13
2018-08-19T02:38:26.144Z,7.50
2018-08-19T02:40:55.066Z,7.53
2018-08-19T02:43:24.157Z,6.90
2018-08-19T02:45:52.848Z,7.07
2018-08-19T02:48:35.533Z,6.97
2018-08-19T02:51:04.206Z,6.53
2018-08-19T02:53:32.736Z,6.87
2018-08-19T02:56:01.433Z,6.90
2018-08-19T02:58:30.127Z,7.03
2018-08-19T03:00:58.733Z,7.00
2018-08-19T03:03:27.376Z,7.00
2018-08-19T03:05:59.207Z,7.00
2018-08-19T03:08:28.271Z,6.83
2018-08-19T03:10:56.988Z,7.13
2018-08-19T03:13:25.563Z,7.00
2018-08-19T03:15:55.884Z,6.93
2018-08-19T03:18:24.507Z,7.10
2018-08-19T03:20:53.204Z,7.57
2018-08-19T03:23:22.158Z,7.53
2018-08-19T03:25:50.840Z,6.87
2018-08-19T03:28:19.450Z,7.53
2018-08-19T03:30:53.213Z,7.30
2018-08-19T03:33:21.981Z,7.10
2018-08-19T03:35:50.811Z,7.00
2018-08-19T03:38:19.312Z,7.07
2018-08-19T03:40:47.855Z,7.07
2018-08-19T03:43:16.347Z,6.73
2018-08-19T03:45:44.889Z,7.43
2018-08-19T03:48:13.381Z,6.70
2018-08-19T03:50:41.911Z,7.17
2018-08-19T03:53:10.552Z,6.83
2018-08-19T03:55:39.269Z,7.47
2018-08-19T03:58:09.133Z,6.60
2018-08-19T04:00:42.807Z,6.93
2018-08-19T04:03:18.662Z,6.83
2018-08-19T04:05:56.772Z,7.10
2018-08-19T04:08:58.901Z,6.87
2018-08-19T04:11:27.691Z,7.87
2018-08-19T04:13:56.285Z,7.30
2018-08-19T04:16:24.868Z,7.20
2018-08-19T04:19:01.364Z,6.77
2018-08-19T04:21:29.896Z,6.73
2018-08-19T04:23:58.425Z,7.00
2018-08-19T04:26:26.939Z,7.10
2018-08-19T04:28:55.510Z,6.83
2018-08-19T04:31:25.210Z,7.27
2018-08-19T04:33:54.954Z,7.47
2018-08-19T04:36:24.918Z,7.67
2018-08-19T04:38:53.473Z,7.10
2018-08-19T04:41:22.049Z,7.17
2018-08-19T04:43:50.671Z,7.00
2018-08-19T04:46:19.196Z,7.37
2018-08-19T04:48:48.668Z,6.90
2018-08-19T04:51:17.238Z,7.10
2018-08-19T04:53:45.800Z,7.17
2018-08-19T04:56:14.326Z,6.80
2018-08-19T04:58:42.825Z,7.27
2018-08-19T05:01:12.539Z,6.73
2018-08-19T05:03:43.071Z,7.60
2018-08-19T05:06:11.604Z,6.93
2018-08-19T05:08:40.123Z,7.00
2018-08-19T05:11:08.680Z,7.07
2018-08-19T05:13:37.327Z,6.60
2018-08-19T05:16:06.127Z,6.97
2018-08-19T05:18:34.690Z,7.00
2018-08-19T05:21:08.303Z,6.80
2018-08-19T05:23:36.859Z,6.90
2018-08-19T05:26:05.574Z,7.20
2018-08-19T05:28:34.177Z,6.47
2018-08-19T05:31:02.730Z,7.20
2018-08-19T05:33:31.270Z,7.60
2018-08-19T05:35:59.789Z,6.87
2018-08-19T05:38:31.365Z,6.70
2018-08-19T05:41:01.203Z,7.13
2018-08-19T05:43:30.594Z,6.57
2018-08-19T05:46:00.202Z,6.87
2018-08-19T05:48:28.736Z,7.00
2018-08-19T05:50:57.683Z,6.70
2018-08-19T05:53:26.197Z,6.87
2018-08-19T05:55:54.720Z,6.90
2018-08-19T05:58:23.240Z,7.10
2018-08-19T06:00:54.340Z,6.80
2018-08-19T06:03:23.051Z,6.97
2018-08-19T06:05:51.600Z,7.70
2018-08-19T06:08:20.242Z,7.53
2018-08-19T06:10:48.831Z,7.13
2018-08-19T06:13:17.418Z,7.20
2018-08-19T06:15:46.044Z,7.33
2018-08-19T06:18:14.508Z,7.03
2018-08-19T06:20:43.026Z,6.87
2018-08-19T06:23:11.541Z,6.87
2018-08-19T06:25:40.093Z,7.20
2018-08-19T06:28:08.674Z,7.47
2018-08-19T06:30:37.241Z,8.07
2018-08-19T06:33:05.795Z,7.70
2018-08-19T06:35:34.322Z,8.10
2018-08-19T06:38:02.951Z,8.57
2018-08-19T06:40:31.448Z,8.37
2018-08-19T06:43:00.126Z,8.70
2018-08-19T06:45:29.408Z,8.87
2018-08-19T06:47:58.019Z,8.90
2018-08-19T06:50:31.484Z,8.47
2018-08-19T06:53:00.005Z,8.90
2018-08-19T06:55:28.856Z,8.83
2018-08-19T06:57:58.395Z,8.93
2018-08-19T07:00:30.918Z,8.77
2018-08-19T07:03:00.667Z,8.93
2018-08-19T07:05:29.790Z,9.00
2018-08-19T07:07:58.295Z,9.07
2018-08-19T07:10:38.009Z,8.70
2018-08-19T07:13:11.039Z,8.37
2018-08-19T07:15:40.799Z,7.97
2018-08-19T07:18:11.161Z,7.87
2018-08-19T07:20:40.793Z,8.43
2018-08-19T07:23:10.991Z,8.30
2018-08-19T07:25:41.421Z,8.37
2018-08-19T07:28:10.927Z,7.63
2018-08-19T07:30:39.759Z,8.67
2018-08-19T07:33:08.603Z,9.00
2018-08-19T07:35:37.143Z,8.90
2018-08-19T07:38:05.675Z,8.50
2018-08-19T07:40:34.198Z,9.00
2018-08-19T07:43:02.846Z,8.77
2018-08-19T07:45:31.443Z,9.17
2018-08-19T07:47:59.973Z,8.40
2018-08-19T07:50:28.503Z,9.60
2018-08-19T07:52:57.042Z,8.63
2018-08-19T07:55:25.647Z,9.53
2018-08-19T07:57:54.149Z,8.63
2018-08-19T08:00:39.663Z,8.80
2018-08-19T08:03:08.322Z,8.00
2018-08-19T08:05:42.135Z,8.73
2018-08-19T08:08:10.673Z,8.60
2018-08-19T08:10:39.842Z,8.00
2018-08-19T08:13:10.400Z,8.67
2018-08-19T08:15:44.113Z,7.97
2018-08-19T08:18:13.006Z,8.30
2018-08-19T08:20:41.467Z,7.80
2018-08-19T08:23:20.382Z,8.73
2018-08-19T08:25:49.315Z,8.93
2018-08-19T08:28:18.007Z,8.97
2018-08-19T08:30:46.637Z,8.97
2018-08-19T08:33:15.103Z,8.57
2018-08-19T08:35:48.971Z,9.23
2018-08-19T08:38:17.694Z,8.83
2018-08-19T08:40:46.293Z,9.33
2018-08-19T08:43:14.698Z,8.13
2018-08-19T08:45:44.065Z,8.70
2018-08-19T08:48:12.731Z,9.40
2018-08-19T08:50:41.325Z,8.53
2018-08-19T08:53:09.834Z,8.37
2018-08-19T08:55:38.297Z,8.70
2018-08-19T08:58:07.087Z,9.30
2018-08-19T09:00:35.646Z,9.73
2018-08-19T09:03:04.157Z,8.77
2018-08-19T09:05:32.611Z,8.73
2018-08-19T09:08:01.194Z,9.00
2018-08-19T09:10:29.672Z,10.17
2018-08-19T09:12:58.156Z,9.40
2018-08-19T09:15:26.643Z,9.33
2018-08-19T09:17:55.116Z,9.17
2018-08-19T09:20:23.634Z,8.47
2018-08-19T09:22:52.131Z,9.50
2018-08-19T09:25:20.622Z,9.00
2018-08-19T09:27:49.085Z,9.17
2018-08-19T09:30:50.686Z,9.37
2018-08-19T09:33:19.166Z,8.47
2018-08-19T09:35:47.676Z,8.80
2018-08-19T09:38:19.545Z,9.20
2018-08-19T09:40:48.204Z,9.33
2018-08-19T09:43:16.958Z,9.27
2018-08-19T09:45:45.857Z,8.77
2018-08-19T09:48:14.944Z,8.90
2018-08-19T09:50:43.947Z,9.50
2018-08-19T09:53:12.568Z,9.13
2018-08-19T09:55:52.375Z,8.93
2018-08-19T09:58:22.079Z,8.90
2018-08-19T10:00:55.930Z,9.13
2018-08-19T10:03:24.447Z,8.90
2018-08-19T10:05:53.019Z,9.63
2018-08-19T10:08:23.682Z,9.20
2018-08-19T10:10:52.625Z,9.57
2018-08-19T10:13:21.229Z,9.50
2018-08-19T10:15:49.723Z,9.57
2018-08-19T10:18:18.198Z,8.70
2018-08-19T10:20:46.691Z,8.97
2018-08-19T10:23:15.176Z,9.50
2018-08-19T10:25:43.645Z,9.73
2018-08-19T10:28:12.107Z,9.77
2018-08-19T10:30:50.555Z,8.93
2018-08-19T10:33:21.355Z,9.77
2018-08-19T10:35:50.260Z,9.40
2018-08-19T10:38:18.790Z,10.33
2018-08-19T10:41:07.602Z,10.70
2018-08-19T10:43:36.127Z,9.80
2018-08-19T10:46:04.683Z,10.00
2018-08-19T10:48:33.208Z,10.80
2018-08-19T10:51:03.118Z,10.90
2018-08-19T10:53:31.658Z,10.33
2018-08-19T10:56:01.975Z,10.67
2018-08-19T10:58:30.637Z,10.03
2018-08-19T11:00:59.098Z,10.10
2018-08-19T11:03:27.612Z,8.97
2018-08-19T11:05:56.791Z,9.80
2018-08-19T11:08:25.297Z,9.53
2018-08-19T11:10:54.382Z,10.13
2018-08-19T11:13:24.320Z,10.07
2018-08-19T11:15:54.245Z,10.60
2018-08-19T11:18:37.533Z,10.97
2018-08-19T11:21:11.253Z,11.00
2018-08-19T11:23:42.174Z,11.23
2018-08-19T11:26:11.603Z,10.83
2018-08-19T11:28:55.813Z,9.97
2018-08-19T11:31:29.642Z,10.33
2018-08-19T11:34:00.458Z,11.23
2018-08-19T11:36:35.284Z,10.80
2018-08-19T11:39:06.070Z,10.50
2018-08-19T11:41:34.829Z,10.67
2018-08-19T11:44:06.810Z,11.50
2018-08-19T11:46:35.396Z,10.63
2018-08-19T11:49:11.329Z,9.60
2018-08-19T11:51:46.239Z,9.33
2018-08-19T11:54:15.807Z,10.03
2018-08-19T11:56:59.602Z,9.37
2018-08-19T11:59:36.310Z,9.13
2018-08-19T12:02:06.425Z,9.03
2018-08-19T12:04:34.887Z,8.33
2018-08-19T12:07:03.359Z,9.30
2018-08-19T12:09:31.833Z,8.80
2018-08-19T12:12:00.319Z,8.73
2018-08-19T12:14:28.924Z,9.17
2018-08-19T12:16:58.731Z,8.80
2018-08-19T12:19:28.563Z,8.03
2018-08-19T12:22:00.012Z,9.20
2018-08-19T12:24:34.628Z,8.67
2018-08-19T12:27:04.201Z,9.47
2018-08-19T12:29:33.730Z,7.93
2018-08-19T12:32:12.874Z,7.87
2018-08-19T12:34:50.366Z,8.37
2018-08-19T12:37:20.041Z,8.43
2018-08-19T12:39:48.864Z,8.10
2018-08-19T12:42:17.351Z,8.70
2018-08-19T12:44:53.403Z,8.40
2018-08-19T12:47:24.278Z,8.97
2018-08-19T12:50:03.755Z,8.30
2018-08-19T12:52:33.702Z,8.83
2018-08-19T12:55:05.251Z,8.17
2018-08-19T12:57:34.474Z,8.70
2018-08-19T13:00:10.491Z,9.10
2018-08-19T13:02:43.213Z,8.57
2018-08-19T13:05:12.192Z,9.47
2018-08-19T13:07:40.654Z,9.03
2018-08-19T13:10:09.424Z,10.03
2018-08-19T13:12:43.139Z,8.70
2018-08-19T13:15:11.647Z,9.53
2018-08-19T13:17:40.111Z,8.67
2018-08-19T13:20:09.099Z,8.80
2018-08-19T13:22:47.820Z,8.23
2018-08-19T13:25:16.518Z,8.67
2018-08-19T13:27:45.056Z,8.93
2018-08-19T13:30:13.562Z,8.00
2018-08-19T13:32:42.094Z,8.93
2018-08-19T13:35:10.600Z,8.73
2018-08-19T13:37:39.075Z,8.37
2018-08-19T13:40:09.254Z,9.00
2018-08-19T13:42:37.730Z,8.60
2018-08-19T13:45:11.544Z,8.40
2018-08-19T13:47:41.019Z,8.90
2018-08-19T13:50:09.598Z,9.23
2018-08-19T13:52:38.389Z,8.80
2018-08-19T13:55:09.705Z,9.93
2018-08-19T13:57:38.169Z,8.97
2018-08-19T14:00:10.423Z,9.67
2018-08-19T14:02:38.890Z,8.70
2018-08-19T14:05:07.399Z,8.97
2018-08-19T14:07:35.854Z,8.57
2018-08-19T14:10:05.314Z,8.47
2018-08-19T14:12:33.811Z,8.30
2018-08-19T14:15:02.286Z,8.70
2018-08-19T14:17:30.750Z,9.43
2018-08-19T14:19:59.223Z,8.97
2018-08-19T14:22:27.844Z,9.13
2018-08-19T14:24:56.320Z,8.70
2018-08-19T14:27:24.773Z,9.00
2018-08-19T14:29:53.274Z,9.23
2018-08-19T14:32:31.578Z,8.70
2018-08-19T14:35:01.731Z,9.33
2018-08-19T14:37:30.233Z,9.70
2018-08-19T14:39:59.541Z,10.27
2018-08-19T14:42:28.002Z,10.10
2018-08-19T14:44:57.620Z,9.80
2018-08-19T14:47:26.472Z,9.60
2018-08-19T14:49:55.460Z,9.70
2018-08-19T14:52:23.923Z,9.03
2018-08-19T14:54:52.379Z,8.83
2018-08-19T14:57:20.870Z,8.73
2018-08-19T14:59:49.334Z,9.00
2018-08-19T15:02:17.829Z,9.00
2018-08-19T15:04:47.483Z,8.00
2018-08-19T15:07:15.996Z,8.10
2018-08-19T15:09:50.098Z,7.90
2018-08-19T15:12:23.591Z,7.80
2018-08-19T15:14:52.610Z,7.47
2018-08-19T15:17:21.262Z,7.43
2018-08-19T15:19:51.709Z,7.23
2018-08-19T15:22:20.426Z,6.90
2018-08-19T15:24:49.151Z,6.77
2018-08-19T15:27:17.611Z,6.93
2018-08-19T15:29:48.197Z,6.57
2018-08-19T15:32:16.762Z,7.53
2018-08-19T15:34:45.327Z,6.43
2018-08-19T15:37:13.790Z,8.07
2018-08-19T15:39:42.278Z,7.17
2018-08-19T15:42:10.778Z,7.63
2018-08-19T15:44:39.272Z,6.70
2018-08-19T15:47:28.167Z,7.10
2018-08-19T15:50:09.601Z,6.90
2018-08-19T15:52:38.157Z,6.70
2018-08-19T15:55:06.748Z,5.47
2018-08-19T15:57:35.264Z,7.10
2018-08-19T16:00:03.775Z,6.93
2018-08-19T16:02:32.256Z,6.83
2018-08-19T16:05:02.787Z,6.70
2018-08-19T16:07:31.293Z,7.47
2018-08-19T16:09:59.799Z,6.77
2018-08-19T16:12:29.918Z,7.27
2018-08-19T16:14:58.397Z,7.30
2018-08-19T16:17:26.891Z,7.97
2018-08-19T16:19:55.391Z,7.27
2018-08-19T16:22:23.880Z,7.33
2018-08-19T16:24:52.359Z,7.50
2018-08-19T16:27:20.834Z,7.80
2018-08-19T16:29:49.321Z,7.37
2018-08-19T16:32:17.843Z,7.57
2018-08-19T16:34:46.320Z,8.00
2018-08-19T16:37:14.836Z,7.30
2018-08-19T16:39:43.324Z,7.50
2018-08-19T16:42:11.798Z,7.27
2018-08-19T16:44:40.327Z,7.30
2018-08-19T16:47:08.789Z,7.67
2018-08-19T16:49:37.269Z,7.70
2018-08-19T16:52:05.759Z,8.07
2018-08-19T16:54:34.252Z,7.13
2018-08-19T16:57:02.752Z,7.60
2018-08-19T16:59:31.232Z,7.87
2018-08-19T17:01:59.709Z,7.43
2018-08-19T17:04:28.180Z,7.57
2018-08-19T17:06:56.670Z,7.03
2018-08-19T17:09:25.163Z,7.47
2018-08-19T17:11:53.629Z,8.00
2018-08-19T17:14:22.110Z,7.77
2018-08-19T17:16:50.635Z,7.60
2018-08-19T17:19:19.097Z,7.50
2018-08-19T17:21:47.642Z,7.63
2018-08-19T17:24:16.122Z,8.10
2018-08-19T17:26:44.690Z,8.17
2018-08-19T17:29:19.509Z,8.27
2018-08-19T17:31:48.116Z,8.03
2018-08-19T17:34:19.986Z,8.77
2018-08-19T17:36:48.624Z,7.90
2018-08-19T17:39:20.654Z,7.83
2018-08-19T17:41:50.219Z,8.10
2018-08-19T17:44:18.700Z,8.33
2018-08-19T17:46:47.188Z,8.10
2018-08-19T17:49:19.798Z,7.87
2018-08-19T17:51:48.266Z,7.23
2018-08-19T17:54:22.051Z,7.57
2018-08-19T17:56:51.013Z,7.90
2018-08-19T17:59:19.591Z,8.17
2018-08-19T18:01:48.012Z,7.67
2018-08-19T18:04:16.527Z,7.60
2018-08-19T18:06:44.993Z,7.13
2018-08-19T18:09:14.963Z,6.97
2018-08-19T18:11:49.298Z,7.67
2018-08-19T18:14:17.830Z,7.90
2018-08-19T18:16:46.379Z,6.97
2018-08-19T18:19:14.858Z,7.10
2018-08-19T18:21:43.322Z,7.20
2018-08-19T18:24:11.830Z,7.50
2018-08-19T18:26:40.299Z,7.13
2018-08-19T18:29:08.767Z,7.43
2018-08-19T18:31:37.238Z,6.67
2018-08-19T18:34:08.590Z,6.93
2018-08-19T18:36:37.260Z,7.30
2018-08-19T18:39:09.411Z,7.17
2018-08-19T18:41:39.244Z,7.30
2018-08-19T18:44:09.154Z,7.23
2018-08-19T18:46:37.839Z,7.43
2018-08-19T18:49:13.110Z,6.90
2018-08-19T18:51:43.306Z,6.90
2018-08-19T18:54:31.629Z,7.60
2018-08-19T18:57:06.108Z,29.47
2018-08-19T18:59:34.626Z,27.90
2018-08-19T19:02:04.188Z,248.73
2018-08-19T19:04:32.683Z,271.33
2018-08-19T19:07:01.149Z,298.53
2018-08-19T19:09:37.774Z,311.80
2018-08-19T19:12:06.281Z,351.47
2018-08-19T19:14:34.754Z,366.13
2018-08-19T19:17:03.260Z,339.00
2018-08-19T19:19:36.737Z,347.53
2018-08-19T19:22:05.279Z,331.33
2018-08-19T19:24:37.814Z,342.37
2018-08-19T19:27:06.654Z,321.03
2018-08-19T19:29:35.155Z,138.90
2018-08-19T19:32:13.855Z,244.83
2018-08-19T19:34:42.327Z,225.60
2018-08-19T19:37:11.038Z,216.10
2018-08-19T19:39:39.561Z,192.03
2018-08-19T19:42:11.092Z,213.50
2018-08-19T19:44:39.571Z,219.53
2018-08-19T19:47:09.370Z,230.40
2018-08-19T19:49:46.688Z,237.20
2018-08-19T19:52:15.194Z,228.73
2018-08-19T19:54:43.670Z,224.67
2018-08-19T19:57:12.236Z,228.63
2018-08-19T19:59:40.750Z,225.73
2018-08-19T20:02:16.522Z,216.27
2018-08-19T20:04:45.415Z,199.37
2018-08-19T20:07:13.946Z,197.03
2018-08-19T20:09:42.465Z,191.87
2018-08-19T20:12:16.021Z,107.57
2018-08-19T20:14:49.299Z,78.57
2018-08-19T20:17:18.778Z,83.13
2018-08-19T20:19:47.254Z,88.40
2018-08-19T20:22:17.675Z,91.23
2018-08-19T20:24:46.487Z,85.73
2018-08-19T20:27:15.282Z,92.33
2018-08-19T20:29:43.765Z,88.80
2018-08-19T20:32:12.261Z,87.23
2018-08-19T20:34:40.759Z,93.70
2018-08-19T20:37:09.316Z,91.70
2018-08-19T20:39:37.893Z,85.57
2018-08-19T20:42:06.853Z,83.00
2018-08-19T20:44:37.305Z,91.73
2018-08-19T20:47:07.819Z,91.33
2018-08-19T20:49:36.347Z,86.47
2018-08-19T20:52:04.943Z,85.93
2018-08-19T20:54:33.503Z,81.67
2018-08-19T20:57:02.067Z,81.07
2018-08-19T20:59:35.200Z,85.03
2018-08-19T21:02:04.489Z,78.80
2018-08-19T21:04:33.029Z,83.73
2018-08-19T21:07:03.027Z,80.53
2018-08-19T21:09:32.439Z,75.93
2018-08-19T21:12:01.018Z,77.13
2018-08-19T21:14:29.901Z,76.97
2018-08-19T21:16:58.917Z,78.13
2018-08-19T21:19:27.455Z,77.67
2018-08-19T21:21:56.081Z,79.80
2018-08-19T21:24:24.596Z,76.87
2018-08-19T21:26:57.265Z,74.40
2018-08-19T21:29:25.786Z,75.93
2018-08-19T21:31:54.397Z,73.07
2018-08-19T21:34:22.917Z,72.87
2018-08-19T21:36:51.446Z,75.87
2018-08-19T21:39:20.059Z,75.17
2018-08-19T21:41:50.331Z,72.23
2018-08-19T21:45:47.972Z,72.67
2018-08-19T21:48:17.164Z,72.27
2018-08-19T21:50:45.658Z,70.80
2018-08-19T21:53:16.378Z,70.90
2018-08-19T21:55:46.168Z,65.87
2018-08-19T21:58:14.688Z,67.07
2018-08-19T22:00:45.588Z,69.60
2018-08-19T22:03:20.375Z,68.50
2018-08-19T22:05:52.072Z,66.10
2018-08-19T22:08:22.377Z,66.33
2018-08-19T22:10:50.851Z,65.23
2018-08-19T22:13:19.358Z,65.30
2018-08-19T22:15:48.255Z,71.47
2018-08-19T22:18:22.189Z,68.73
2018-08-19T22:21:08.378Z,65.30
2018-08-19T22:23:50.505Z,65.53
2018-08-19T22:26:19.999Z,64.07
2018-08-19T22:29:02.574Z,57.80
2018-08-19T22:31:31.114Z,60.80
2018-08-19T22:33:59.620Z,57.37
2018-08-19T22:36:28.134Z,58.53
2018-08-19T22:38:57.671Z,59.90
2018-08-19T22:41:29.848Z,57.83
2018-08-19T22:43:59.078Z,59.43
2018-08-19T22:46:28.217Z,60.40
2018-08-19T22:48:57.398Z,55.70
2018-08-19T22:51:29.011Z,54.83
2018-08-19T22:53:57.505Z,54.73
2018-08-19T22:56:26.022Z,53.97
2018-08-19T22:58:54.531Z,52.77
2018-08-19T23:01:23.151Z,52.57
2018-08-19T23:03:58.517Z,54.10
2018-08-19T23:06:27.789Z,54.27
2018-08-19T23:08:56.306Z,53.83
2018-08-19T23:11:32.530Z,52.83
2018-08-19T23:14:12.514Z,54.23
2018-08-19T23:16:41.084Z,51.93
2018-08-19T23:19:09.630Z,51.33
2018-08-19T23:21:38.245Z,53.57
2018-08-19T23:24:06.754Z,50.97
2018-08-19T23:26:35.275Z,50.13
2018-08-19T23:29:03.807Z,51.13
2018-08-19T23:31:32.378Z,51.70
2018-08-19T23:34:00.873Z,49.07
2018-08-19T23:36:29.366Z,48.83
2018-08-19T23:38:57.896Z,49.13
2018-08-19T23:41:26.407Z,47.97
2018-08-19T23:43:54.988Z,48.83
2018-08-19T23:46:23.510Z,48.73
2018-08-19T23:48:52.218Z,46.87
2018-08-19T23:51:24.854Z,48.37
2018-08-19T23:53:53.370Z,47.03
2018-08-19T23:56:21.852Z,46.03
2018-08-19T23:58:51.407Z,46.70
